Thursday, February 22, 2018, 4:37 PM CST
Back to Local

KORD, Chicago O'hare International

Location: Des Plaines, IL, United States Lat: 41.983
Local Time: 4:37 PM CST (22:37 GMT) Lon: -87.917
Time Zone: US/Central Elev: 669 ft

Show me the last for .
Show Decoded

2018-02-22 15:51 METAR KORD 222151Z 08014G21KT 10SM OVC026 03/M02 A3039 RMK AO2 SLP297 T00331022
                 =
2018-02-22 15:30 METAR KORD 222130Z 08013KT 10SM OVC028 03/M02 A3041 RMK AO2 T00331022 =
2018-02-22 14:51 METAR KORD 222051Z 07014KT 10SM BKN034 OVC044 03/M02 A3043 RMK AO2 SLP313
                 T00331022 56024 =
2018-02-22 13:51 METAR KORD 221951Z 05014KT 10SM FEW021 BKN043 OVC055 03/M02 A3045 RMK AO2 SLP318
                 T00331022 =
2018-02-22 12:51 METAR KORD 221851Z 06013KT 10SM FEW020 BKN055 BKN150 04/M02 A3048 RMK AO2 SLP328
                 T00391017 =
2018-02-22 11:51 METAR KORD 221751Z 07012KT 10SM FEW017 SCT070 BKN130 04/M03 A3051 RMK AO2 SLP338
                 T00391028 10044 20000 58013 =
2018-02-22 10:51 METAR KORD 221651Z 07012KT 10SM FEW017 FEW026 BKN080 OVC130 03/M02 A3053 RMK AO2
                 SLP347 T00331017 =
2018-02-22 09:51 METAR KORD 221551Z 07012KT 10SM FEW017 BKN100 BKN130 03/M02 A3054 RMK AO2 SLP350
                 T00281017 =
2018-02-22 08:51 METAR KORD 221451Z 05012KT 10SM FEW020 BKN100 BKN140 02/M02 A3055 RMK AO2 SLP351
                 T00221022 53003 =
2018-02-22 07:51 METAR KORD 221351Z 06011KT 10SM BKN110 OVC180 01/M03 A3055 RMK AO2 SLP352
                 T00111028 =
2018-02-22 06:51 METAR KORD 221251Z 05012KT 10SM BKN120 OVC170 01/M03 A3054 RMK AO2 SLP349
                 T00061028 =
2018-02-22 05:51 METAR KORD 221151Z 04011KT 10SM SCT025 BKN120 OVC250 01/M03 A3054 RMK AO2 SLP349
                 T00061033 10006 21017 55000 =
2018-02-22 04:51 METAR KORD 221051Z 04009KT 10SM FEW023 BKN160 OVC250 00/M04 A3053 RMK AO2 SLP347
                 T00001039 =
2018-02-22 03:51 METAR KORD 220951Z 04009KT 10SM FEW023 OVC220 M01/M04 A3053 RMK AO2 SLP348
                 T10061039 =
2018-02-22 02:51 METAR KORD 220851Z 05011KT 10SM OVC200 M01/M05 A3054 RMK AO2 SLP349 T10061050
                 58010 =
2018-02-22 01:51 METAR KORD 220751Z 05008KT 10SM OVC190 M01/M06 A3058 RMK AO2 SLP362 T10061056 =
2018-02-22 00:51 METAR KORD 220651Z 04011KT 10SM OVC190 M01/M06 A3056 RMK AO2 SLP357 T10111056 =
2018-02-21 23:51 METAR KORD 220551Z 05012KT 10SM BKN200 OVC250 M02/M06 A3057 RMK AO2 SLP360
                 T10171061 11017 21017 400111028 58021 =
2018-02-21 22:51 METAR KORD 220451Z 05011KT 10SM OVC200 M02/M07 A3061 RMK AO2 SLP373 T10171067 =
2018-02-21 21:51 METAR KORD 220351Z 04010KT 10SM BKN220 OVC250 M02/M07 A3062 RMK AO2 SLP379
                 T10171072 =
2018-02-21 20:51 METAR KORD 220251Z 04007KT 10SM BKN230 OVC250 M02/M07 A3063 RMK AO2 SLP382
                 T10171067 50009 =
2018-02-21 19:51 METAR KORD 220151Z 04006KT 10SM OVC230 M02/M07 A3063 RMK AO2 SLP383 T10171067 =
2018-02-21 18:51 METAR KORD 220051Z 03010KT 10SM BKN220 OVC250 M02/M07 A3062 RMK AO2 SLP378
                 T10171072 =
2018-02-21 17:51 METAR KORD 212351Z 06008KT 10SM BKN220 OVC250 M02/M07 A3061 RMK AO2 SLP373
                 T10171072 10006 21017 53010 =
2018-02-21 16:51 METAR KORD 212251Z 04010KT 10SM FEW025 BKN210 OVC250 M01/M07 A3059 RMK AO2
                 SLP369 T10111067 =

Support USWX by starting your Amazon purchase here.